Time;durP1;ratioP1;P1;durP2;ratioP2;P2;SDS_P1;SDS_P2;PMS_P1;PMS_P2;Temp;Humidity;BMP_temperature;BMP_pressure;BME280_temperature;BME280_humidity;BME280_pressure;Samples;Min_cycle;Max_cycle;Signal;HPM_P1;HPM_P2
2022/10/27 00:00:36;;;;;;;7.53;5.77;;;12.40;99.90;;;;;;5103175;28;20392;-80
2022/10/27 00:03:21;;;;;;;5.87;5.17;;;12.40;99.90;;;;;;5102151;28;20384;-80
2022/10/27 00:06:06;;;;;;;8.00;5.80;;;12.40;99.90;;;;;;5103656;28;20396;-80
2022/10/27 00:08:51;;;;;;;6.90;6.30;;;12.50;99.90;;;;;;5088340;28;20384;-80
2022/10/27 00:11:35;;;;;;;5.67;5.10;;;12.40;99.90;;;;;;5087639;28;20842;-80
2022/10/27 00:14:20;;;;;;;7.80;5.87;;;12.40;99.90;;;;;;5102378;28;20433;-80
2022/10/27 00:17:04;;;;;;;6.57;5.80;;;12.40;99.90;;;;;;5102275;28;20463;-80
2022/10/27 00:19:48;;;;;;;8.20;5.87;;;12.40;99.90;;;;;;5102728;28;20729;-80
2022/10/27 00:22:32;;;;;;;6.33;5.13;;;12.40;99.90;;;;;;5086955;28;20416;-81
2022/10/27 00:25:16;;;;;;;14.13;6.80;;;12.30;99.90;;;;;;5101881;28;20453;-80
2022/10/27 00:28:00;;;;;;;8.63;6.00;;;12.30;99.90;;;;;;5102761;28;20363;-79
2022/10/27 00:30:44;;;;;;;9.43;6.03;;;12.30;99.90;;;;;;5102788;28;20384;-79
2022/10/27 00:33:29;;;;;;;9.20;6.47;;;12.20;99.90;;;;;;5086736;28;20474;-79
2022/10/27 00:36:17;;;;;;;9.67;7.10;;;12.20;99.90;;;;;;5103388;28;20939;-79
2022/10/27 00:39:02;;;;;;;12.87;6.97;;;12.20;99.90;;;;;;5104426;28;20399;-77
2022/10/27 00:41:46;;;;;;;10.10;8.07;;;12.20;99.90;;;;;;5111260;28;20388;-77
2022/10/27 00:44:36;;;;;;;18.10;8.90;;;12.30;99.90;;;;;;5112533;28;20387;-76
2022/10/27 00:47:25;;;;;;;16.47;8.17;;;12.30;99.90;;;;;;5111498;28;20431;-77
2022/10/27 00:50:15;;;;;;;11.77;7.37;;;12.20;99.90;;;;;;5107402;28;20400;-78
2022/10/27 00:52:59;;;;;;;14.63;7.57;;;12.00;99.90;;;;;;5101847;28;20887;-79
2022/10/27 00:55:44;;;;;;;15.03;7.67;;;12.00;99.90;;;;;;5101253;28;20425;-79
2022/10/27 00:58:29;;;;;;;12.33;9.90;;;11.90;99.90;;;;;;5101229;28;20910;-79
2022/10/27 01:01:14;;;;;;;14.47;7.47;;;12.00;99.90;;;;;;5101461;28;20460;-78
2022/10/27 01:03:58;;;;;;;13.30;7.70;;;11.90;99.90;;;;;;5101546;28;20380;-79
2022/10/27 01:06:43;;;;;;;26.50;7.90;;;11.80;99.90;;;;;;5102177;28;20388;-79
2022/10/27 01:09:28;;;;;;;10.20;8.00;;;11.80;99.90;;;;;;5101152;28;20802;-79
2022/10/27 01:12:12;;;;;;;13.80;8.20;;;11.80;99.90;;;;;;5101930;28;20412;-79
2022/10/27 01:14:56;;;;;;;10.60;7.60;;;11.70;99.90;;;;;;5101275;28;20392;-78
2022/10/27 01:17:57;;;;;;;18.53;7.40;;;11.70;99.90;;;;;;5102551;28;20423;-79
2022/10/27 01:21:09;;;;;;;16.90;7.47;;;11.60;99.90;;;;;;5101260;28;20904;-79
2022/10/27 01:24:16;;;;;;;16.60;8.20;;;11.60;99.90;;;;;;5086375;28;20411;-79
2022/10/27 01:27:06;;;;;;;18.83;7.00;;;11.60;99.90;;;;;;5102636;28;20445;-78
2022/10/27 01:30:04;;;;;;;14.47;6.27;;;11.50;99.90;;;;;;5071320;28;20427;-81
2022/10/27 01:33:13;;;;;;;13.93;6.57;;;11.50;99.90;;;;;;5100351;28;20529;-81
2022/10/27 01:36:05;;;;;;;15.87;6.53;;;11.40;99.90;;;;;;5101458;28;20513;-80
2022/10/27 01:39:05;;;;;;;9.13;6.83;;;11.50;99.90;;;;;;5104063;28;20397;-80
2022/10/27 01:41:54;;;;;;;10.90;6.93;;;11.60;99.90;;;;;;5086912;28;20717;-80
2022/10/27 01:44:44;;;;;;;11.03;6.53;;;11.60;99.90;;;;;;5101442;28;20388;-81
2022/10/27 01:47:30;;;;;;;9.13;6.50;;;11.60;99.90;;;;;;5085631;28;20419;-80
2022/10/27 01:50:18;;;;;;;8.93;6.57;;;11.50;99.90;;;;;;5103945;28;20470;-80
2022/10/27 01:53:02;;;;;;;21.00;5.83;;;11.30;99.90;;;;;;5106920;28;20466;-80
2022/10/27 01:56:16;;;;;;;7.50;5.77;;;11.30;99.90;;;;;;5101085;28;20458;-81
2022/10/27 01:59:22;;;;;;;8.10;6.03;;;11.20;99.90;;;;;;5105559;28;20493;-81
2022/10/27 02:02:28;;;;;;;11.10;5.77;;;11.20;99.90;;;;;;5090261;28;20396;-81
2022/10/27 02:05:26;;;;;;;30.70;7.07;;;11.10;99.90;;;;;;5104706;28;20384;-81
2022/10/27 02:08:38;;;;;;;29.63;5.80;;;11.10;99.90;;;;;;5104528;28;20387;-81
2022/10/27 02:11:22;;;;;;;30.27;6.00;;;11.00;99.90;;;;;;5093134;28;20411;-81
2022/10/27 02:14:08;;;;;;;16.20;6.57;;;11.00;99.90;;;;;;5104279;28;20455;-81
2022/10/27 02:16:53;;;;;;;12.40;5.30;;;11.00;99.90;;;;;;5073686;28;20959;-81
2022/10/27 02:19:41;;;;;;;28.70;6.30;;;10.90;99.90;;;;;;5106057;28;20887;-81
2022/10/27 02:22:28;;;;;;;13.93;6.40;;;11.00;99.90;;;;;;5105236;28;20486;-80
2022/10/27 02:25:12;;;;;;;18.27;6.43;;;11.00;99.90;;;;;;5104306;28;20381;-80
2022/10/27 02:28:04;;;;;;;10.90;6.57;;;11.10;99.90;;;;;;5104862;28;20388;-79
2022/10/27 02:30:50;;;;;;;22.37;6.30;;;11.00;99.90;;;;;;5105673;28;20467;-79
2022/10/27 02:33:34;;;;;;;16.90;5.90;;;10.90;99.90;;;;;;5104388;28;20455;-81
2022/10/27 02:36:18;;;;;;;7.10;5.37;;;10.80;99.90;;;;;;5103965;28;20518;-81
2022/10/27 02:39:03;;;;;;;6.30;5.70;;;10.80;99.90;;;;;;5088423;28;20380;-80
2022/10/27 02:41:47;;;;;;;6.13;5.00;;;10.70;99.90;;;;;;5103661;28;20372;-80
2022/10/27 02:44:31;;;;;;;7.73;5.40;;;10.70;99.90;;;;;;5104475;28;20745;-80
2022/10/27 02:47:15;;;;;;;6.03;4.83;;;10.60;99.90;;;;;;5103842;28;20412;-81
2022/10/27 02:49:59;;;;;;;6.10;5.27;;;10.50;99.90;;;;;;5103553;28;20455;-80
2022/10/27 02:52:43;;;;;;;8.17;4.63;;;10.50;99.90;;;;;;5103695;28;20394;-81
2022/10/27 02:55:27;;;;;;;25.27;4.83;;;10.50;99.90;;;;;;5104482;28;20446;-81
2022/10/27 02:58:11;;;;;;;6.27;4.93;;;10.40;99.90;;;;;;5103714;28;20428;-80
2022/10/27 03:00:55;;;;;;;8.60;4.70;;;10.40;99.90;;;;;;5103935;28;20514;-80
2022/10/27 03:03:39;;;;;;;7.93;5.83;;;10.50;99.90;;;;;;5104038;28;20355;-80
2022/10/27 03:06:23;;;;;;;10.63;5.37;;;10.40;99.90;;;;;;5104164;28;20388;-80
2022/10/27 03:09:07;;;;;;;7.67;6.27;;;10.50;99.90;;;;;;5102664;28;20420;-80
2022/10/27 03:11:51;;;;;;;7.10;5.20;;;10.40;99.90;;;;;;5104027;28;20375;-81
2022/10/27 03:14:35;;;;;;;7.33;6.63;;;10.50;99.90;;;;;;5103771;28;20388;-81
2022/10/27 03:17:19;;;;;;;9.13;4.30;;;10.60;99.90;;;;;;5103878;28;20396;-81
2022/10/27 03:20:04;;;;;;;9.43;6.20;;;10.70;99.90;;;;;;5104393;28;20384;-81
2022/10/27 03:22:48;;;;;;;13.37;4.93;;;10.60;99.90;;;;;;5103917;28;20380;-80
2022/10/27 03:25:32;;;;;;;9.77;5.40;;;10.60;99.90;;;;;;5103437;28;20464;-81
2022/10/27 03:28:17;;;;;;;9.03;5.30;;;10.60;99.90;;;;;;5104548;28;20380;-80
2022/10/27 03:31:03;;;;;;;8.90;5.73;;;10.70;99.90;;;;;;5103514;28;20883;-80
2022/10/27 03:33:47;;;;;;;7.87;5.40;;;10.60;99.90;;;;;;5103413;28;20834;-80
2022/10/27 03:36:32;;;;;;;7.30;5.17;;;10.70;99.90;;;;;;5103125;28;20447;-80
2022/10/27 03:39:17;;;;;;;16.03;6.20;;;10.70;99.90;;;;;;5103043;28;20380;-80
2022/10/27 03:42:01;;;;;;;22.73;5.60;;;10.70;99.90;;;;;;5101722;28;20752;-80
2022/10/27 03:44:45;;;;;;;9.30;5.70;;;10.60;99.90;;;;;;5103036;28;20453;-80
2022/10/27 03:47:29;;;;;;;8.30;4.87;;;10.70;99.90;;;;;;5084895;28;20412;-80
2022/10/27 03:50:13;;;;;;;12.30;6.77;;;10.80;99.90;;;;;;5081465;28;20411;-80
2022/10/27 03:52:58;;;;;;;12.23;6.43;;;10.80;99.90;;;;;;5066976;28;20813;-80
2022/10/27 03:55:43;;;;;;;9.33;5.60;;;10.70;99.90;;;;;;5081975;28;20490;-80
2022/10/27 03:58:27;;;;;;;6.90;5.97;;;10.70;99.90;;;;;;5083451;28;20463;-80
2022/10/27 04:01:11;;;;;;;13.83;6.13;;;10.70;99.90;;;;;;5087226;28;20527;-77
2022/10/27 04:03:55;;;;;;;15.97;5.80;;;10.70;99.90;;;;;;5088152;28;20474;-77
2022/10/27 04:06:39;;;;;;;16.37;6.37;;;10.60;99.90;;;;;;5088265;28;20417;-78
2022/10/27 04:09:23;;;;;;;28.50;6.47;;;10.60;99.90;;;;;;5082299;28;20961;-80
2022/10/27 04:12:08;;;;;;;18.13;6.40;;;10.50;99.90;;;;;;5081350;28;20363;-80
2022/10/27 04:14:52;;;;;;;8.13;5.67;;;10.40;99.90;;;;;;5066550;28;20359;-80
2022/10/27 04:17:36;;;;;;;9.50;5.40;;;10.50;99.90;;;;;;5066730;28;20364;-80
2022/10/27 04:20:20;;;;;;;15.60;5.50;;;10.30;99.90;;;;;;5081358;28;20396;-80
2022/10/27 04:23:05;;;;;;;18.60;4.73;;;10.30;99.90;;;;;;5082289;28;20401;-79
2022/10/27 04:25:49;;;;;;;13.83;6.80;;;10.30;99.90;;;;;;5082251;28;20459;-79
2022/10/27 04:28:33;;;;;;;13.37;6.60;;;10.20;99.90;;;;;;5081798;28;20351;-81
2022/10/27 04:31:18;;;;;;;12.43;5.20;;;10.30;99.90;;;;;;5081493;28;20389;-80
2022/10/27 04:34:02;;;;;;;24.60;5.73;;;10.20;99.90;;;;;;5093540;28;20501;-80
2022/10/27 04:36:46;;;;;;;18.03;6.50;;;10.10;99.90;;;;;;5102267;28;20479;-80
2022/10/27 04:39:30;;;;;;;10.10;5.60;;;10.10;99.90;;;;;;5101598;28;20819;-79
2022/10/27 04:42:15;;;;;;;21.50;6.10;;;10.10;99.90;;;;;;5102284;28;20427;-79
2022/10/27 04:44:59;;;;;;;14.17;6.43;;;10.10;99.90;;;;;;5102224;28;20404;-80
2022/10/27 04:47:44;;;;;;;17.87;6.67;;;10.00;99.90;;;;;;5102497;28;20399;-81
2022/10/27 04:50:28;;;;;;;10.67;5.47;;;10.10;99.90;;;;;;5101211;28;20438;-80
2022/10/27 04:53:12;;;;;;;13.57;6.03;;;10.00;99.90;;;;;;5102170;28;20403;-80
2022/10/27 04:55:56;;;;;;;7.47;5.37;;;10.10;99.90;;;;;;5103012;28;20981;-80
2022/10/27 04:58:40;;;;;;;12.80;5.97;;;10.10;99.90;;;;;;5062001;28;20377;-80
2022/10/27 05:01:24;;;;;;;9.83;6.07;;;10.10;99.90;;;;;;5060947;28;20409;-80
2022/10/27 05:04:09;;;;;;;23.37;6.03;;;10.10;99.90;;;;;;5061854;28;20417;-80
2022/10/27 05:06:53;;;;;;;14.60;5.30;;;10.10;99.90;;;;;;5063351;28;20458;-80
2022/10/27 05:09:37;;;;;;;13.90;6.40;;;9.80;99.90;;;;;;5063789;28;20818;-80
2022/10/27 05:12:21;;;;;;;14.17;6.23;;;9.90;99.90;;;;;;5048639;28;20402;-80
2022/10/27 05:15:06;;;;;;;21.63;5.10;;;10.00;99.90;;;;;;5063344;28;20391;-80
2022/10/27 05:17:50;;;;;;;8.23;5.93;;;9.90;99.90;;;;;;5072181;28;20448;-79
2022/10/27 05:20:35;;;;;;;7.70;5.27;;;9.80;99.90;;;;;;5073433;28;20398;-78
2022/10/27 05:23:19;;;;;;;16.73;5.40;;;9.90;99.90;;;;;;5072385;28;20404;-78
2022/10/27 05:26:04;;;;;;;23.73;5.87;;;10.10;99.90;;;;;;5080652;28;20432;-80
2022/10/27 05:28:48;;;;;;;8.83;5.00;;;10.10;99.90;;;;;;5086847;28;20435;-78
2022/10/27 05:31:33;;;;;;;20.40;5.40;;;10.00;99.90;;;;;;5095719;28;20409;-78
2022/10/27 05:34:17;;;;;;;5.80;5.03;;;10.00;99.90;;;;;;5121180;28;20454;-78
2022/10/27 05:37:01;;;;;;;10.90;4.40;;;10.00;99.90;;;;;;5127128;28;20487;-77
2022/10/27 05:39:45;;;;;;;18.57;5.43;;;10.10;99.90;;;;;;5116421;28;20451;-78
2022/10/27 05:42:30;;;;;;;40.23;8.00;;;10.20;99.90;;;;;;5114288;28;20427;-79
2022/10/27 05:45:14;;;;;;;8.53;4.53;;;10.20;99.90;;;;;;5096409;28;20429;-79
2022/10/27 05:48:01;;;;;;;5.40;4.20;;;10.40;99.90;;;;;;5109622;28;20423;-80
2022/10/27 05:50:50;;;;;;;12.03;5.30;;;10.30;99.90;;;;;;5103062;28;20478;-80
2022/10/27 05:53:34;;;;;;;6.50;5.10;;;10.30;99.90;;;;;;5092037;28;20403;-80
2022/10/27 05:56:18;;;;;;;11.03;5.57;;;10.30;99.90;;;;;;5108508;28;20432;-79
2022/10/27 05:59:03;;;;;;;28.33;5.77;;;10.30;99.90;;;;;;5109677;28;20459;-79
2022/10/27 06:01:47;;;;;;;10.60;5.33;;;10.40;99.90;;;;;;5122661;28;20407;-78
2022/10/27 06:04:31;;;;;;;15.43;7.20;;;10.30;99.90;;;;;;5111921;28;20436;-78
2022/10/27 06:07:16;;;;;;;15.57;7.10;;;10.30;99.90;;;;;;5103551;28;20454;-79
2022/10/27 06:10:00;;;;;;;15.33;6.53;;;10.20;99.90;;;;;;5117555;28;20436;-78
2022/10/27 06:12:44;;;;;;;24.03;9.13;;;10.30;99.90;;;;;;5115598;28;20452;-77
2022/10/27 06:15:30;;;;;;;17.13;8.50;;;10.50;99.90;;;;;;5111392;28;20498;-77
2022/10/27 06:18:14;;;;;;;12.07;8.30;;;10.60;99.90;;;;;;5105028;28;20413;-79
2022/10/27 06:20:58;;;;;;;16.10;8.03;;;10.60;99.90;;;;;;5089055;28;20416;-78
2022/10/27 06:23:42;;;;;;;19.67;8.57;;;10.70;99.90;;;;;;5087994;28;20446;-79
2022/10/27 06:26:27;;;;;;;22.57;8.93;;;10.90;99.90;;;;;;5085902;28;20443;-80
2022/10/27 06:29:11;;;;;;;12.50;6.80;;;10.90;99.90;;;;;;5079009;28;20464;-80
2022/10/27 06:31:55;;;;;;;20.93;8.67;;;10.90;99.90;;;;;;5101682;28;20469;-80
2022/10/27 06:34:39;;;;;;;27.53;8.63;;;10.80;99.90;;;;;;5092361;28;20568;-80
2022/10/27 06:37:23;;;;;;;13.37;6.50;;;10.80;99.90;;;;;;5096084;28;20438;-80
2022/10/27 06:40:10;;;;;;;18.33;8.10;;;11.00;99.90;;;;;;5101216;28;20526;-79
2022/10/27 06:42:54;;;;;;;13.40;7.23;;;11.00;99.90;;;;;;5100453;28;20427;-80
2022/10/27 06:45:40;;;;;;;11.77;6.40;;;11.00;99.90;;;;;;5086208;28;20455;-81
2022/10/27 06:48:24;;;;;;;23.47;9.93;;;11.00;99.90;;;;;;5100686;28;20428;-80
2022/10/27 06:51:08;;;;;;;20.50;9.57;;;11.10;99.90;;;;;;5092808;28;20431;-79
2022/10/27 06:53:52;;;;;;;17.90;6.43;;;11.20;99.90;;;;;;5084434;28;20430;-79
2022/10/27 06:56:36;;;;;;;18.53;6.73;;;11.30;99.90;;;;;;5093805;28;20471;-81
2022/10/27 06:59:21;;;;;;;9.77;5.77;;;11.40;99.90;;;;;;5072741;28;20435;-79
2022/10/27 07:02:05;;;;;;;8.73;7.73;;;11.40;99.90;;;;;;5086950;28;21000;-80
2022/10/27 07:04:50;;;;;;;8.80;6.63;;;11.40;99.90;;;;;;5083312;28;20459;-80
2022/10/27 07:07:35;;;;;;;11.93;7.37;;;11.50;99.90;;;;;;5090156;28;20833;-78
2022/10/27 07:10:19;;;;;;;10.50;7.00;;;11.60;99.90;;;;;;5089135;28;20423;-80
2022/10/27 07:13:04;;;;;;;12.53;6.87;;;11.70;99.90;;;;;;5090007;28;20431;-79
2022/10/27 07:15:48;;;;;;;20.17;7.50;;;11.60;99.90;;;;;;5089435;28;20467;-80
2022/10/27 07:18:32;;;;;;;11.83;5.23;;;11.70;99.90;;;;;;5087702;28;20447;-79
2022/10/27 07:21:16;;;;;;;7.87;5.40;;;11.80;99.90;;;;;;5085684;28;21020;-80
2022/10/27 07:24:00;;;;;;;6.80;5.47;;;11.90;99.90;;;;;;5083909;28;20433;-80
2022/10/27 07:26:44;;;;;;;8.37;4.87;;;11.90;99.90;;;;;;5089501;28;20493;-80
2022/10/27 07:29:29;;;;;;;12.40;5.97;;;11.90;99.90;;;;;;5094155;28;20507;-80
2022/10/27 07:32:13;;;;;;;16.57;5.20;;;12.10;99.90;;;;;;5056336;28;20449;-79
2022/10/27 07:34:57;;;;;;;11.07;5.37;;;12.10;99.90;;;;;;5088981;28;20484;-79
2022/10/27 07:37:44;;;;;;;5.30;4.80;;;12.10;99.90;;;;;;5083363;28;21567;-79
2022/10/27 07:40:29;;;;;;;8.93;4.30;;;12.10;99.90;;;;;;5092060;28;20420;-80
2022/10/27 07:43:13;;;;;;;6.40;5.40;;;12.20;99.90;;;;;;5064661;28;20494;-79
2022/10/27 07:45:58;;;;;;;15.90;9.07;;;12.20;99.90;;;;;;5091249;28;20462;-78
2022/10/27 07:48:45;;;;;;;5.20;4.70;;;12.20;99.90;;;;;;5093082;28;20525;-79
2022/10/27 07:51:29;;;;;;;7.97;5.57;;;12.20;99.90;;;;;;5098725;28;20423;-79
2022/10/27 07:54:13;;;;;;;5.67;5.17;;;12.30;99.90;;;;;;5083661;28;20419;-79
2022/10/27 07:56:58;;;;;;;6.30;4.93;;;12.20;99.90;;;;;;5077076;28;20463;-78
2022/10/27 07:59:42;;;;;;;9.93;4.83;;;12.20;99.90;;;;;;5074178;28;20465;-79
2022/10/27 08:02:26;;;;;;;4.97;3.97;;;11.90;99.90;;;;;;5076285;28;20435;-78
2022/10/27 08:05:10;;;;;;;18.20;5.47;;;11.90;99.90;;;;;;5065516;28;20424;-78
2022/10/27 08:07:59;;;;;;;6.20;5.60;;;12.10;99.90;;;;;;5088511;28;20564;-79
2022/10/27 08:10:45;;;;;;;10.90;5.10;;;12.20;99.90;;;;;;5096412;28;20394;-79
2022/10/27 08:13:30;;;;;;;9.67;5.00;;;12.30;99.90;;;;;;5092924;28;20435;-80
2022/10/27 08:16:14;;;;;;;8.20;4.90;;;12.30;99.90;;;;;;5091639;28;20666;-81
2022/10/27 08:18:58;;;;;;;14.00;4.90;;;12.20;99.90;;;;;;5077696;28;20390;-79
2022/10/27 08:21:43;;;;;;;10.30;5.60;;;12.10;99.90;;;;;;5092116;28;20943;-80
2022/10/27 08:24:27;;;;;;;6.10;5.53;;;12.00;99.90;;;;;;5077850;28;20427;-80
2022/10/27 08:27:12;;;;;;;6.60;5.60;;;11.80;99.90;;;;;;5095015;28;20745;-79
2022/10/27 08:29:56;;;;;;;10.10;5.43;;;11.80;99.90;;;;;;5096788;28;20424;-79
2022/10/27 08:32:40;;;;;;;8.23;6.00;;;11.80;99.90;;;;;;5091628;28;20525;-79
2022/10/27 08:35:26;;;;;;;7.33;5.60;;;12.00;99.90;;;;;;5090294;28;21037;-79
2022/10/27 08:38:13;;;;;;;7.23;6.17;;;11.90;99.90;;;;;;5092209;28;20442;-80
2022/10/27 08:41:08;;;;;;;10.17;6.47;;;11.90;99.90;;;;;;5094406;28;20399;-79
2022/10/27 08:44:07;;;;;;;8.70;6.67;;;12.00;99.90;;;;;;5078900;28;20435;-79
2022/10/27 08:46:55;;;;;;;7.40;5.90;;;12.10;99.90;;;;;;5087215;28;20436;-80
2022/10/27 08:49:45;;;;;;;7.90;7.10;;;12.40;99.90;;;;;;5090061;28;20435;-79
2022/10/27 08:53:05;;;;;;;10.00;7.50;;;12.60;99.90;;;;;;5092575;28;20444;-80
2022/10/27 08:55:55;;;;;;;14.73;8.60;;;12.70;99.90;;;;;;5081761;28;20464;-78
2022/10/27 08:58:45;;;;;;;13.37;7.30;;;13.00;99.90;;;;;;5091108;28;20478;-79
2022/10/27 09:01:42;;;;;;;9.07;6.80;;;13.00;99.90;;;;;;5097407;28;20510;-78
2022/10/27 09:04:45;;;;;;;9.50;7.13;;;13.10;99.90;;;;;;5077580;28;20424;-79
2022/10/27 09:07:56;;;;;;;15.30;8.50;;;13.20;99.90;;;;;;5089150;28;20533;-81
2022/10/27 09:10:51;;;;;;;8.23;7.43;;;13.30;99.90;;;;;;5098159;28;20579;-81
2022/10/27 09:13:57;;;;;;;8.07;6.50;;;13.30;99.90;;;;;;5097232;28;20485;-80
2022/10/27 09:16:47;;;;;;;20.27;6.00;;;13.50;99.90;;;;;;5077720;28;20486;-81
2022/10/27 09:19:42;;;;;;;15.27;7.10;;;13.50;99.90;;;;;;5098165;28;20415;-81
2022/10/27 09:22:29;;;;;;;6.00;5.40;;;13.40;99.90;;;;;;5079934;28;20522;-80
2022/10/27 09:25:19;;;;;;;8.03;6.93;;;13.50;99.90;;;;;;5078518;28;20469;-80
2022/10/27 09:28:04;;;;;;;8.63;7.37;;;13.60;99.90;;;;;;5089523;28;20415;-80
2022/10/27 09:30:51;;;;;;;11.37;8.73;;;13.60;99.90;;;;;;5091778;28;20923;-78
2022/10/27 09:33:35;;;;;;;20.80;9.03;;;13.50;99.90;;;;;;5071674;28;20467;-80
2022/10/27 09:36:22;;;;;;;10.80;7.77;;;13.60;99.90;;;;;;5064951;28;20484;-81
2022/10/27 09:39:08;;;;;;;8.90;7.40;;;13.70;99.90;;;;;;5052566;28;20443;-79
2022/10/27 09:41:52;;;;;;;8.47;7.03;;;13.80;99.90;;;;;;5059107;28;20956;-81
2022/10/27 09:44:37;;;;;;;8.27;7.50;;;13.90;99.90;;;;;;5054484;28;20420;-81
2022/10/27 09:47:23;;;;;;;9.23;8.20;;;13.90;99.90;;;;;;5065267;28;20497;-80
2022/10/27 09:50:22;;;;;;;10.70;7.30;;;13.90;99.90;;;;;;5059373;28;20456;-80
2022/10/27 09:53:35;;;;;;;9.73;8.13;;;13.80;99.90;;;;;;5060245;28;20474;-80
2022/10/27 09:56:26;;;;;;;7.17;6.47;;;13.80;99.90;;;;;;5076034;28;20495;-79
2022/10/27 09:59:20;;;;;;;9.63;8.50;;;13.80;99.90;;;;;;5071168;28;20915;-80
2022/10/27 10:02:29;;;;;;;9.50;8.50;;;13.60;99.90;;;;;;5074810;28;20452;-79
2022/10/27 10:05:22;;;;;;;9.93;8.50;;;13.70;99.90;;;;;;5063724;28;20456;-81
2022/10/27 10:08:22;;;;;;;10.10;8.43;;;14.20;99.90;;;;;;5075579;28;20928;-81
2022/10/27 10:11:21;;;;;;;11.20;8.43;;;14.50;99.90;;;;;;5059145;28;20427;-79
2022/10/27 10:14:22;;;;;;;13.17;10.00;;;14.60;99.90;;;;;;5069332;28;20424;-80
2022/10/27 10:17:19;;;;;;;14.20;11.93;;;14.90;99.90;;;;;;5069226;28;20463;-81
2022/10/27 10:20:07;;;;;;;17.13;12.23;;;15.10;99.90;;;;;;5054779;28;20420;-81
2022/10/27 10:22:51;;;;;;;17.60;14.80;;;15.50;99.90;;;;;;5070843;28;20412;-80
2022/10/27 10:25:41;;;;;;;19.00;14.70;;;16.20;99.90;;;;;;5072170;28;20486;-79
2022/10/27 10:28:40;;;;;;;17.63;13.90;;;16.80;99.90;;;;;;5066683;28;20590;-82
2022/10/27 10:31:27;;;;;;;16.93;13.83;;;18.30;99.90;;;;;;5070138;28;20972;-79
2022/10/27 10:34:31;;;;;;;18.60;13.30;;;19.30;99.90;;;;;;5089000;28;20536;-79
2022/10/27 10:37:30;;;;;;;16.53;12.40;;;20.10;99.90;;;;;;5092289;28;20586;-82
2022/10/27 10:40:30;;;;;;;21.27;11.53;;;20.90;99.90;;;;;;5093517;28;20419;-80
2022/10/27 10:43:15;;;;;;;11.43;10.27;;;21.40;99.90;;;;;;5098416;28;20469;-80
2022/10/27 10:45:59;;;;;;;12.30;10.03;;;21.90;99.90;;;;;;5086058;28;20490;-81
2022/10/27 10:48:50;;;;;;;11.77;10.20;;;22.50;99.90;;;;;;5072775;28;20477;-80
2022/10/27 10:51:35;;;;;;;10.80;9.80;;;22.70;99.90;;;;;;5065952;28;20482;-80
2022/10/27 10:54:40;;;;;;;11.37;10.03;;;22.50;99.90;;;;;;5092903;28;20875;-81
2022/10/27 10:57:39;;;;;;;16.30;10.13;;;23.00;99.90;;;;;;5078847;28;20463;-82
2022/10/27 11:00:25;;;;;;;10.23;9.27;;;22.90;99.90;;;;;;5077719;28;20432;-82
2022/10/27 11:03:17;;;;;;;9.40;8.50;;;23.20;99.90;;;;;;5095531;28;20439;-82
2022/10/27 11:06:05;;;;;;;8.87;7.97;;;23.50;99.90;;;;;;5095474;28;20423;-82
2022/10/27 11:08:57;;;;;;;10.13;8.17;;;23.20;99.90;;;;;;5088975;28;20481;-81
2022/10/27 11:11:45;;;;;;;7.97;7.20;;;23.70;99.90;;;;;;5078272;28;20451;-81
2022/10/27 11:14:30;;;;;;;9.17;7.10;;;23.80;99.90;;;;;;5094244;28;20481;-81
2022/10/27 11:17:15;;;;;;;9.50;7.43;;;22.80;99.90;;;;;;5072678;28;20559;-82
2022/10/27 11:20:03;;;;;;;7.63;6.83;;;23.10;99.90;;;;;;5079393;28;20976;-81
2022/10/27 11:22:50;;;;;;;9.20;7.93;;;24.00;99.90;;;;;;5073521;28;20499;-81
2022/10/27 11:25:36;;;;;;;10.27;6.80;;;24.10;99.90;;;;;;5088876;28;20581;-82
2022/10/27 11:28:58;;;;;;;7.43;6.77;;;23.90;99.90;;;;;;5089701;28;20477;-80
2022/10/27 11:31:59;;;;;;;10.80;6.50;;;24.60;99.90;;;;;;5087596;28;20797;-79
2022/10/27 11:34:56;;;;;;;7.53;6.57;;;25.20;99.90;;;;;;5078182;28;20515;-81
2022/10/27 11:38:14;;;;;;;7.90;6.27;;;25.70;99.90;;;;;;5073259;28;20443;-81
2022/10/27 11:41:15;;;;;;;8.17;7.33;;;26.30;99.90;;;;;;5079498;28;20537;-79
2022/10/27 11:44:19;;;;;;;7.00;6.23;;;26.20;99.90;;;;;;5092442;28;20774;-81
2022/10/27 11:47:21;;;;;;;7.60;6.10;;;26.40;99.90;;;;;;5085550;28;21025;-82
2022/10/27 11:50:17;;;;;;;7.03;5.20;;;26.80;99.90;;;;;;5100420;28;20468;-82
2022/10/27 11:53:02;;;;;;;5.90;5.47;;;26.90;99.90;;;;;;5095408;28;20494;-81
2022/10/27 11:56:09;;;;;;;6.13;5.70;;;27.00;99.90;;;;;;5090962;28;20427;-81
2022/10/27 11:59:19;;;;;;;5.93;5.33;;;26.90;99.90;;;;;;5093003;28;20426;-80
2022/10/27 12:02:23;;;;;;;5.93;5.37;;;27.00;99.90;;;;;;5096316;28;20447;-82
2022/10/27 12:05:13;;;;;;;5.80;5.30;;;27.30;99.90;;;;;;5082706;28;20451;-80
2022/10/27 12:08:28;;;;;;;7.87;5.10;;;27.60;99.90;;;;;;5104024;28;20431;-82
2022/10/27 12:11:40;;;;;;;5.97;5.47;;;27.90;99.90;;;;;;5098450;28;20546;-83
2022/10/27 12:14:38;;;;;;;5.57;4.97;;;28.10;99.90;;;;;;5107088;28;20193;-80
2022/10/27 12:17:49;;;;;;;8.70;5.70;;;28.00;99.20;;;;;;5094403;28;20560;-81
2022/10/27 12:20:44;;;;;;;5.60;4.97;;;27.50;99.90;;;;;;5079731;28;20165;-80
2022/10/27 12:23:36;;;;;;;6.10;4.00;;;26.80;99.90;;;;;;5103071;28;20261;-80
2022/10/27 12:26:45;;;;;;;14.47;5.50;;;26.70;99.90;;;;;;5100814;28;20223;-79
2022/10/27 12:29:35;;;;;;;5.60;5.10;;;27.40;99.90;;;;;;5032707;28;20195;-80
2022/10/27 12:32:29;;;;;;;4.97;3.73;;;26.80;99.90;;;;;;5034290;28;20421;-81
2022/10/27 12:35:27;;;;;;;9.00;3.90;;;25.80;99.90;;;;;;5029635;28;20453;-78
2022/10/27 12:38:37;;;;;;;6.93;4.10;;;25.90;99.90;;;;;;5035793;28;20433;-80
2022/10/27 12:41:50;;;;;;;5.77;4.13;;;25.50;99.90;;;;;;5025849;28;20421;-80
2022/10/27 12:44:58;;;;;;;6.17;4.40;;;24.90;99.90;;;;;;5038683;28;20447;-79
2022/10/27 12:47:56;;;;;;;4.27;3.63;;;25.10;99.90;;;;;;5039517;28;21009;-81
2022/10/27 12:50:58;;;;;;;6.37;4.90;;;25.00;99.90;;;;;;5041388;28;20434;-81
2022/10/27 12:53:51;;;;;;;4.53;4.13;;;25.20;99.90;;;;;;5039544;28;20568;-81
2022/10/27 12:56:49;;;;;;;7.73;5.63;;;25.90;99.90;;;;;;5043973;28;20446;-82
2022/10/27 12:59:55;;;;;;;6.40;5.43;;;26.10;99.90;;;;;;5046898;28;20495;-81
2022/10/27 13:03:04;;;;;;;4.73;3.87;;;26.60;99.90;;;;;;5077533;28;20467;-82
2022/10/27 13:06:12;;;;;;;9.10;4.07;;;26.70;99.90;;;;;;5069570;28;20491;-81
2022/10/27 13:09:24;;;;;;;8.37;3.50;;;25.60;99.90;;;;;;5062750;28;20538;-81
2022/10/27 13:12:25;;;;;;;4.30;3.43;;;26.60;99.90;;;;;;5034862;28;20480;-80
2022/10/27 13:15:37;;;;;;;5.20;3.47;;;27.30;99.90;;;;;;5011657;28;20486;-82
2022/10/27 13:18:49;;;;;;;6.50;4.60;;;27.90;99.90;;;;;;5021681;28;20504;-80
2022/10/27 13:21:58;;;;;;;5.77;3.40;;;26.90;99.90;;;;;;5029981;28;20522;-84
2022/10/27 13:25:09;;;;;;;7.30;3.10;;;26.70;99.90;;;;;;5031567;28;20513;-83
2022/10/27 13:28:06;;;;;;;4.73;3.60;;;26.70;99.90;;;;;;5033161;28;20451;-84
2022/10/27 13:31:01;;;;;;;4.27;3.37;;;26.90;99.90;;;;;;5036974;28;20545;-83
2022/10/27 13:34:00;;;;;;;8.20;3.83;;;27.60;99.90;;;;;;5021725;28;20565;-83
2022/10/27 13:36:45;;;;;;;4.47;3.90;;;28.20;99.90;;;;;;5015055;28;20509;-84
2022/10/27 13:39:43;;;;;;;11.33;3.27;;;27.90;99.90;;;;;;5027292;28;20502;-84
2022/10/27 13:42:27;;;;;;;6.17;3.53;;;26.50;99.90;;;;;;5045501;28;20542;-84
2022/10/27 13:45:51;;;;;;;8.43;3.30;;;26.90;99.90;;;;;;5058064;28;20500;-83
2022/10/27 13:48:42;;;;;;;3.83;3.53;;;26.90;99.90;;;;;;5052294;28;20432;-82
2022/10/27 13:51:39;;;;;;;9.77;5.20;;;28.00;99.10;;;;;;5061634;28;20451;-82
2022/10/27 13:54:58;;;;;;;7.50;3.20;;;27.40;99.60;;;;;;5083306;28;20454;-81
2022/10/27 13:57:55;;;;;;;3.10;2.70;;;27.30;99.20;;;;;;5089229;28;20462;-82
2022/10/27 14:01:12;;;;;;;5.03;3.10;;;27.80;98.70;;;;;;5085083;28;20439;-80
2022/10/27 14:04:23;;;;;;;4.03;3.57;;;27.30;99.50;;;;;;5083283;28;20440;-84
2022/10/27 14:07:11;;;;;;;6.33;3.50;;;27.30;99.40;;;;;;5075241;28;20459;-84
2022/10/27 14:09:55;;;;;;;3.67;3.07;;;27.70;98.80;;;;;;5067122;28;20483;-83
2022/10/27 14:12:40;;;;;;;7.80;2.90;;;27.30;99.20;;;;;;5080776;28;20444;-82
2022/10/27 14:15:27;;;;;;;6.57;3.83;;;27.00;98.60;;;;;;5075023;28;20446;-82
2022/10/27 14:18:28;;;;;;;9.60;3.40;;;27.20;99.00;;;;;;5077202;28;20462;-81
2022/10/27 14:21:20;;;;;;;4.70;3.20;;;27.00;99.90;;;;;;5042434;28;20466;-82
2022/10/27 14:24:29;;;;;;;6.00;3.50;;;25.90;99.70;;;;;;5075430;28;20423;-81
2022/10/27 14:27:16;;;;;;;10.17;3.80;;;25.90;99.90;;;;;;5075156;28;20463;-80
2022/10/27 14:30:06;;;;;;;7.03;3.80;;;24.00;99.90;;;;;;5081616;28;20420;-81
2022/10/27 14:32:50;;;;;;;7.00;3.60;;;24.30;99.90;;;;;;5068619;28;20463;-81
2022/10/27 14:35:36;;;;;;;5.00;3.43;;;24.60;99.90;;;;;;5087886;28;20487;-82
2022/10/27 14:38:21;;;;;;;7.43;4.50;;;25.20;99.90;;;;;;5073646;28;20448;-82